Prt Angeles, Washington
Current Conditions -  °F | °C
As of 2:53 PM on Sunday 21 Dec 2014 (Local Time) from KCLM Reporting Station
Scattered Clouds Scattered Clouds  
Wind Chill: 51°   Ceiling: Unl
Heat Index: 51°   Visibility: 10mi
Dew Point: 43°   Wind: 13mph
Humidity: 74%   Direction: 230°SW
Pressure: 29.99"   Gusts: NA
Location:  47.9555°N, 123.813°W
Report Text: KCLM 212253Z AUTO 23011KT 10SM SCT055 SCT065 11/06 A2999 RMK AO2 SLP156 T01060061 TSNO $
Loading
Personal Weather Stations






























Interactive Weather Map New forecast layout! Learn more

10-Day Weather Forecast

Advertisements
Track Severe Weather on mobile